Chicago, Illinois
Traffic Map
Current Weather Conditions
Chicago, Illinois
Few Clouds
Few Clouds
13°
Feels Like: 13°
Wind Chill: 13° Ceiling: Unl
Heat Index: 13° Visibility: 10mi
Dew Point: Wind: 10mph
Humidity: 43% Direction: 150° (SSE)
Pressure: 30.24in Gusts: 0mph
Raw Report DataKMDW 200551Z 15009KT 10SM FEW250 13/01 A3024 RMK AO2 SLP238 T01280006 10150 20111 401780033 56004 $
Traffic Incident Summary
Active as of:
Severity:
Category:
InformationThere was an issue retrieving the traffic information for this location. Please try a different location or try again shortly.
Advertisements
At Last! Intellicast now available for iPhone and Android